createdAt,value
2023-03-11T00:00:22.266Z,0.45
2023-03-11T00:02:52.057Z,1.48
2023-03-11T00:05:21.874Z,0.28
2023-03-11T00:07:49.259Z,0.75
2023-03-11T00:10:25.090Z,0.50
2023-03-11T00:12:52.882Z,0.55
2023-03-11T00:15:20.334Z,0.20
2023-03-11T00:17:48.323Z,0.55
2023-03-11T00:20:21.782Z,0.63
2023-03-11T00:22:49.635Z,0.52
2023-03-11T00:25:17.487Z,0.77
2023-03-11T00:27:44.815Z,0.50
2023-03-11T00:30:13.407Z,0.93
2023-03-11T00:32:40.899Z,0.77
2023-03-11T00:35:12.631Z,0.40
2023-03-11T00:37:40.397Z,0.35
2023-03-11T00:40:11.746Z,1.20
2023-03-11T00:45:06.520Z,0.50
2023-03-11T00:47:33.784Z,1.00
2023-03-11T00:50:01.142Z,0.75
2023-03-11T00:52:34.219Z,0.35
2023-03-11T00:55:02.141Z,0.88
2023-03-11T00:57:32.445Z,0.65
2023-03-11T01:00:02.883Z,0.47
2023-03-11T01:02:30.034Z,0.77
2023-03-11T01:04:57.208Z,0.68
2023-03-11T01:07:24.365Z,0.10
2023-03-11T01:09:51.567Z,0.28
2023-03-11T01:12:18.770Z,0.20
2023-03-11T01:14:46.291Z,0.47
2023-03-11T01:17:13.457Z,1.00
2023-03-11T01:19:40.853Z,0.63
2023-03-11T01:22:08.033Z,0.45
2023-03-11T01:24:35.115Z,0.25
2023-03-11T01:27:02.331Z,0.55
2023-03-11T01:29:32.301Z,0.43
2023-03-11T01:32:11.437Z,0.95
2023-03-11T01:34:40.524Z,0.65
2023-03-11T01:37:10.997Z,0.52
2023-03-11T01:39:41.505Z,0.52
2023-03-11T01:42:11.799Z,0.47
2023-03-11T01:44:39.206Z,0.43
2023-03-11T01:47:09.984Z,0.73
2023-03-11T01:49:37.195Z,0.25
2023-03-11T01:52:07.379Z,0.75
2023-03-11T01:54:41.651Z,0.30
2023-03-11T01:57:21.211Z,0.52
2023-03-11T01:59:51.855Z,0.65
2023-03-11T02:02:51.121Z,0.77
2023-03-11T02:05:24.845Z,0.50
2023-03-11T02:07:54.678Z,1.10
2023-03-11T02:10:22.039Z,0.43
2023-03-11T02:12:52.899Z,0.77
2023-03-11T02:15:21.216Z,0.65
2023-03-11T02:17:52.879Z,0.40
2023-03-11T02:21:11.741Z,0.45
2023-03-11T02:24:16.345Z,0.75
2023-03-11T02:27:06.878Z,0.90
2023-03-11T02:29:37.510Z,1.10
2023-03-11T02:32:09.030Z,2.00
2023-03-11T02:34:38.690Z,2.28
2023-03-11T02:37:10.871Z,1.63
2023-03-11T02:39:42.440Z,2.47
2023-03-11T02:42:33.477Z,1.40
2023-03-11T02:45:16.895Z,1.77
2023-03-11T02:47:44.987Z,3.55
2023-03-11T02:50:22.758Z,2.08
2023-03-11T02:52:53.303Z,1.92
2023-03-11T02:55:23.044Z,3.30
2023-03-11T02:57:52.643Z,2.15
2023-03-11T03:00:20.122Z,3.65
2023-03-11T03:02:50.840Z,2.63
2023-03-11T03:05:21.908Z,1.77
2023-03-11T03:07:51.113Z,3.42
2023-03-11T03:10:25.050Z,3.25
2023-03-11T03:13:13.374Z,2.15
2023-03-11T03:15:42.208Z,3.53
2023-03-11T03:18:10.410Z,3.53
2023-03-11T03:20:38.490Z,2.38
2023-03-11T03:23:08.733Z,2.67
2023-03-11T03:25:43.279Z,2.03
2023-03-11T03:28:11.323Z,1.52
2023-03-11T03:30:39.152Z,1.35
2023-03-11T03:33:06.338Z,2.58
2023-03-11T03:35:35.557Z,1.55
2023-03-11T03:38:05.745Z,1.02
2023-03-11T03:40:35.972Z,1.48
2023-03-11T03:43:06.811Z,0.90
2023-03-11T03:45:33.942Z,1.48
2023-03-11T03:48:01.591Z,1.02
2023-03-11T03:50:28.891Z,1.77
2023-03-11T03:52:56.072Z,2.17
2023-03-11T03:55:26.114Z,1.27
2023-03-11T03:57:53.253Z,2.22
2023-03-11T04:00:20.737Z,1.73
2023-03-11T04:02:47.816Z,2.15
2023-03-11T04:05:14.872Z,0.28
2023-03-11T04:07:42.093Z,1.05
2023-03-11T04:10:09.861Z,0.95
2023-03-11T04:12:37.001Z,0.38
2023-03-11T04:15:04.568Z,0.93
2023-03-11T04:17:31.773Z,0.82
2023-03-11T04:19:58.882Z,1.02
2023-03-11T04:22:26.346Z,0.13
2023-03-11T04:24:53.747Z,0.40
2023-03-11T04:27:21.186Z,1.17
2023-03-11T04:29:54.327Z,0.13
2023-03-11T04:32:22.883Z,0.47
2023-03-11T04:34:50.401Z,0.08
2023-03-11T04:37:23.733Z,0.50
2023-03-11T04:39:51.212Z,0.93
2023-03-11T04:42:18.595Z,0.47
2023-03-11T04:44:48.808Z,0.10
2023-03-11T04:47:24.500Z,0.55
2023-03-11T04:49:51.902Z,0.80
2023-03-11T04:52:36.373Z,0.32
2023-03-11T04:55:07.737Z,0.32
2023-03-11T04:57:36.853Z,0.40
2023-03-11T05:00:10.593Z,0.50
2023-03-11T05:02:40.742Z,0.35
2023-03-11T05:05:19.176Z,0.63
2023-03-11T05:07:49.648Z,0.30
2023-03-11T05:10:17.696Z,0.50
2023-03-11T05:12:45.616Z,0.15
2023-03-11T05:15:13.436Z,0.85
2023-03-11T05:17:41.831Z,0.30
2023-03-11T05:20:15.861Z,0.10
2023-03-11T05:22:46.983Z,0.35
2023-03-11T05:25:15.245Z,0.52
2023-03-11T05:27:43.353Z,0.38
2023-03-11T05:30:11.181Z,0.40
2023-03-11T05:32:38.546Z,0.20
2023-03-11T05:35:06.934Z,0.10
2023-03-11T05:37:34.325Z,0.38
2023-03-11T05:40:01.567Z,0.20
2023-03-11T05:42:28.815Z,0.20
2023-03-11T05:44:57.610Z,0.88
2023-03-11T05:47:34.785Z,1.00
2023-03-11T05:50:02.048Z,0.43
2023-03-11T05:52:37.086Z,0.38
2023-03-11T05:55:04.830Z,0.82
2023-03-11T05:57:32.151Z,1.02
2023-03-11T05:59:59.762Z,1.05
2023-03-11T06:02:32.503Z,0.57
2023-03-11T06:04:59.914Z,0.65
2023-03-11T06:07:27.257Z,0.30
2023-03-11T06:10:03.072Z,0.17
2023-03-11T06:12:30.324Z,0.30
2023-03-11T06:14:57.552Z,0.30
2023-03-11T06:17:24.769Z,0.20
2023-03-11T06:19:58.329Z,0.17
2023-03-11T06:22:25.403Z,0.80
2023-03-11T06:25:10.871Z,0.65
2023-03-11T06:30:23.658Z,0.10
2023-03-11T06:32:55.078Z,0.22
2023-03-11T06:35:34.580Z,0.47
2023-03-11T06:38:01.720Z,0.10
2023-03-11T06:40:28.874Z,0.55
2023-03-11T06:43:01.701Z,0.15
2023-03-11T06:45:29.071Z,0.10
2023-03-11T06:47:56.459Z,0.52
2023-03-11T06:50:28.348Z,0.10
2023-03-11T06:52:58.658Z,0.10
2023-03-11T06:55:32.130Z,1.00
2023-03-11T06:58:02.400Z,0.47
2023-03-11T07:00:29.589Z,0.85
2023-03-11T07:02:56.802Z,0.30
2023-03-11T07:05:24.019Z,1.05
2023-03-11T07:07:54.082Z,0.10
2023-03-11T07:10:25.912Z,0.57
2023-03-11T07:12:53.196Z,0.20
2023-03-11T07:15:20.437Z,0.47
2023-03-11T07:18:03.746Z,0.77
2023-03-11T07:20:34.061Z,0.10
2023-03-11T07:23:01.259Z,0.13
2023-03-11T07:25:29.249Z,0.95
2023-03-11T07:27:56.400Z,0.50
2023-03-11T07:30:26.294Z,0.40
2023-03-11T07:32:56.314Z,0.20
2023-03-11T07:35:25.684Z,0.50
2023-03-11T07:37:53.823Z,0.70
2023-03-11T07:40:22.276Z,0.10
2023-03-11T07:42:49.907Z,0.20
2023-03-11T07:45:22.509Z,0.20
2023-03-11T07:47:49.837Z,0.50
2023-03-11T07:50:20.588Z,0.20
2023-03-11T07:52:58.207Z,0.80
2023-03-11T07:55:27.097Z,0.10
2023-03-11T07:57:54.472Z,0.25
2023-03-11T08:00:22.282Z,0.10
2023-03-11T08:02:49.681Z,0.43
2023-03-11T08:05:22.175Z,0.20
2023-03-11T08:07:49.968Z,0.15
2023-03-11T08:10:17.321Z,0.65
2023-03-11T08:12:45.635Z,0.25
2023-03-11T08:15:18.291Z,0.10
2023-03-11T08:17:57.079Z,0.15
2023-03-11T08:20:25.232Z,0.40
2023-03-11T08:23:04.404Z,0.32
2023-03-11T08:25:40.995Z,0.10
2023-03-11T08:28:08.746Z,0.15
2023-03-11T08:30:36.232Z,0.10
2023-03-11T08:33:04.000Z,0.32
2023-03-11T08:35:32.121Z,0.20
2023-03-11T08:37:59.572Z,0.10
2023-03-11T08:40:27.215Z,0.17
2023-03-11T08:42:55.983Z,0.38
2023-03-11T08:45:23.417Z,0.10
2023-03-11T08:47:50.844Z,0.03
2023-03-11T08:50:20.214Z,0.32
2023-03-11T08:52:57.887Z,0.10
2023-03-11T08:55:25.302Z,0.00
2023-03-11T08:57:52.557Z,0.20
2023-03-11T09:00:22.932Z,0.77
2023-03-11T09:03:06.106Z,0.10
2023-03-11T09:05:37.666Z,0.32
2023-03-11T09:08:23.299Z,0.10
2023-03-11T09:10:50.566Z,0.55
2023-03-11T09:13:18.676Z,0.20
2023-03-11T09:15:52.199Z,0.10
2023-03-11T09:18:23.922Z,0.10
2023-03-11T09:21:02.029Z,0.10
2023-03-11T09:23:32.291Z,0.05
2023-03-11T09:26:00.875Z,0.13
2023-03-11T09:28:28.148Z,0.10
2023-03-11T09:30:55.553Z,0.20
2023-03-11T09:33:24.988Z,0.10
2023-03-11T09:35:52.384Z,0.30
2023-03-11T09:38:19.725Z,0.38
2023-03-11T09:40:59.484Z,0.38
2023-03-11T09:43:58.948Z,0.10
2023-03-11T09:47:07.718Z,0.10
2023-03-11T09:49:51.214Z,0.10
2023-03-11T09:52:36.105Z,0.20
2023-03-11T09:55:46.248Z,0.10
2023-03-11T09:58:28.463Z,0.20
2023-03-11T10:00:56.267Z,0.10
2023-03-11T10:03:32.142Z,0.22
2023-03-11T10:06:14.737Z,0.28
2023-03-11T10:09:16.077Z,0.10
2023-03-11T10:12:09.459Z,0.25
2023-03-11T10:14:39.824Z,0.10
2023-03-11T10:17:30.433Z,0.10
2023-03-11T10:20:19.456Z,0.10
2023-03-11T10:23:20.635Z,0.10
2023-03-11T10:26:08.725Z,0.10
2023-03-11T10:28:45.730Z,0.10
2023-03-11T10:31:36.288Z,0.30
2023-03-11T10:34:34.791Z,0.10
2023-03-11T10:37:46.281Z,0.10
2023-03-11T10:40:33.168Z,0.20
2023-03-11T10:43:09.363Z,0.40
2023-03-11T10:45:42.643Z,0.20
2023-03-11T10:48:18.837Z,0.10
2023-03-11T10:51:04.695Z,0.00
2023-03-11T10:53:46.822Z,0.03
2023-03-11T10:56:24.236Z,0.10
2023-03-11T10:58:51.509Z,0.30
2023-03-11T11:01:19.503Z,0.10
2023-03-11T11:03:53.634Z,0.30
2023-03-11T11:06:22.987Z,0.15
2023-03-11T11:09:13.136Z,0.13
2023-03-11T11:11:43.483Z,0.20
2023-03-11T11:14:12.758Z,0.82
2023-03-11T11:16:55.244Z,0.00
2023-03-11T11:19:34.290Z,0.20
2023-03-11T11:22:04.681Z,0.05
2023-03-11T11:24:32.008Z,0.20
2023-03-11T11:27:29.613Z,0.05
2023-03-11T11:30:20.139Z,0.00
2023-03-11T11:32:50.917Z,0.15
2023-03-11T11:35:24.786Z,0.10
2023-03-11T11:38:01.273Z,0.10
2023-03-11T11:40:34.132Z,0.17
2023-03-11T11:43:15.020Z,0.10
2023-03-11T11:46:06.285Z,0.00
2023-03-11T11:51:35.765Z,0.10
2023-03-11T11:54:13.584Z,0.20
2023-03-11T11:56:47.345Z,0.08
2023-03-11T11:59:20.227Z,0.10
2023-03-11T12:01:53.499Z,0.00
2023-03-11T12:04:46.898Z,0.00
2023-03-11T12:07:31.468Z,0.10
2023-03-11T12:10:26.556Z,0.15
2023-03-11T12:13:04.716Z,0.10
2023-03-11T12:15:46.623Z,0.20
2023-03-11T12:18:45.325Z,0.30
2023-03-11T12:21:17.819Z,0.10
2023-03-11T12:24:06.524Z,0.20
2023-03-11T12:26:40.423Z,0.10
2023-03-11T12:29:36.042Z,0.20
2023-03-11T12:32:07.307Z,0.22
2023-03-11T12:37:14.633Z,0.20
2023-03-11T12:39:42.122Z,0.00
2023-03-11T12:42:18.442Z,0.10
2023-03-11T12:44:47.700Z,0.10
2023-03-11T12:47:27.179Z,0.20
2023-03-11T12:50:16.744Z,0.00
2023-03-11T12:52:56.303Z,0.00
2023-03-11T12:55:28.924Z,0.10
2023-03-11T12:58:45.511Z,0.30
2023-03-11T13:01:24.432Z,0.10
2023-03-11T13:04:24.979Z,0.10
2023-03-11T13:07:53.720Z,0.00
2023-03-11T13:10:44.504Z,0.00
2023-03-11T13:13:35.343Z,0.10
2023-03-11T13:16:16.320Z,0.20
2023-03-11T13:18:48.063Z,0.10
2023-03-11T13:21:27.574Z,0.30
2023-03-11T13:24:19.667Z,0.10
2023-03-11T13:27:37.165Z,0.40
2023-03-11T13:30:19.756Z,0.70
2023-03-11T13:33:06.679Z,0.32
2023-03-11T13:36:01.699Z,0.20
2023-03-11T13:38:29.044Z,0.10
2023-03-11T13:41:04.384Z,0.20
2023-03-11T13:43:40.948Z,0.13
2023-03-11T13:46:31.727Z,0.20
2023-03-11T13:49:12.204Z,0.10
2023-03-11T13:51:44.992Z,0.10
2023-03-11T13:54:18.194Z,0.68
2023-03-11T13:56:57.249Z,0.10
2023-03-11T13:59:30.186Z,0.20
2023-03-11T14:02:00.769Z,0.47
2023-03-11T14:04:36.085Z,0.03
2023-03-11T14:07:15.073Z,0.10
2023-03-11T14:09:42.559Z,0.13
2023-03-11T14:12:13.812Z,0.10
2023-03-11T14:15:20.763Z,0.10
2023-03-11T14:17:48.904Z,0.20
2023-03-11T14:20:19.353Z,0.00
2023-03-11T14:22:53.216Z,0.10
2023-03-11T14:25:25.666Z,0.20
2023-03-11T14:28:07.772Z,0.00
2023-03-11T14:30:38.313Z,0.10
2023-03-11T14:33:21.396Z,0.10
2023-03-11T14:35:56.677Z,0.15
2023-03-11T14:38:26.910Z,0.10
2023-03-11T14:40:59.032Z,0.00
2023-03-11T14:43:32.276Z,0.10
2023-03-11T14:46:00.969Z,0.10
2023-03-11T14:48:43.394Z,0.10
2023-03-11T14:51:23.898Z,0.10
2023-03-11T14:54:11.466Z,0.00
2023-03-11T14:56:44.853Z,0.10
2023-03-11T14:59:20.669Z,0.03
2023-03-11T15:01:49.317Z,0.10
2023-03-11T15:04:35.393Z,0.10
2023-03-11T15:07:04.790Z,0.20
2023-03-11T15:09:49.058Z,0.10
2023-03-11T15:12:48.039Z,0.17
2023-03-11T15:15:31.004Z,0.20
2023-03-11T15:18:19.728Z,0.10
2023-03-11T15:21:06.482Z,0.10
2023-03-11T15:23:36.975Z,0.10
2023-03-11T15:26:05.033Z,0.38
2023-03-11T15:28:34.432Z,0.65
2023-03-11T15:31:21.450Z,0.10
2023-03-11T15:33:49.944Z,0.10
2023-03-11T15:36:35.312Z,0.10
2023-03-11T15:39:25.326Z,0.15
2023-03-11T15:42:07.460Z,0.20
2023-03-11T15:44:55.205Z,0.38
2023-03-11T15:47:23.929Z,0.10
2023-03-11T15:50:24.769Z,0.10
2023-03-11T15:53:02.073Z,0.10
2023-03-11T15:55:31.852Z,0.28
2023-03-11T15:58:11.189Z,0.10
2023-03-11T16:00:50.272Z,0.10
2023-03-11T16:03:22.075Z,1.13
2023-03-11T16:05:52.869Z,0.25
2023-03-11T16:08:27.447Z,0.10
2023-03-11T16:10:54.833Z,0.10
2023-03-11T16:13:22.207Z,0.65
2023-03-11T16:15:50.724Z,0.10
2023-03-11T16:18:27.948Z,0.10
2023-03-11T16:20:56.432Z,0.10
2023-03-11T16:23:26.500Z,0.10
2023-03-11T16:26:12.484Z,0.10
2023-03-11T16:28:44.736Z,0.10
2023-03-11T16:31:12.266Z,0.10
2023-03-11T16:33:39.567Z,0.10
2023-03-11T16:36:12.385Z,0.17
2023-03-11T16:38:49.985Z,0.10
2023-03-11T16:41:18.930Z,0.20
2023-03-11T16:43:47.532Z,0.10
2023-03-11T16:46:14.919Z,0.10
2023-03-11T16:48:45.860Z,0.10
2023-03-11T16:51:13.370Z,0.20
2023-03-11T16:53:45.813Z,0.10
2023-03-11T16:56:20.700Z,0.10
2023-03-11T16:58:54.343Z,0.10
2023-03-11T17:01:22.026Z,0.10
2023-03-11T17:04:00.222Z,0.38
2023-03-11T17:06:27.786Z,0.10
2023-03-11T17:08:55.001Z,0.32
2023-03-11T17:11:24.097Z,0.10
2023-03-11T17:14:10.142Z,0.20
2023-03-11T17:16:47.901Z,0.32
2023-03-11T17:19:18.473Z,0.22
2023-03-11T17:21:48.502Z,0.10
2023-03-11T17:24:15.839Z,0.10
2023-03-11T17:26:43.276Z,0.10
2023-03-11T17:29:17.424Z,0.90
2023-03-11T17:31:44.865Z,0.93
2023-03-11T17:34:12.362Z,0.30
2023-03-11T17:36:39.584Z,0.10
2023-03-11T17:39:07.020Z,0.40
2023-03-11T17:41:34.771Z,0.40
2023-03-11T17:44:02.163Z,0.40
2023-03-11T17:46:34.883Z,0.10
2023-03-11T17:49:33.562Z,0.52
2023-03-11T17:52:00.982Z,0.10
2023-03-11T17:54:28.554Z,0.17
2023-03-11T17:56:58.066Z,0.20
2023-03-11T17:59:25.512Z,0.38
2023-03-11T18:01:52.958Z,0.10
2023-03-11T18:04:20.406Z,0.10
2023-03-11T18:06:52.866Z,0.10
2023-03-11T18:09:45.409Z,0.38
2023-03-11T18:12:12.789Z,0.10
2023-03-11T18:14:40.095Z,0.35
2023-03-11T18:17:08.683Z,0.10
2023-03-11T18:19:35.966Z,0.15
2023-03-11T18:22:03.389Z,0.10
2023-03-11T18:24:30.670Z,0.20
2023-03-11T18:26:57.975Z,0.32
2023-03-11T18:29:26.560Z,0.10
2023-03-11T18:32:05.532Z,0.10
2023-03-11T18:34:33.737Z,0.10
2023-03-11T18:37:02.121Z,0.10
2023-03-11T18:39:31.827Z,0.10
2023-03-11T18:41:59.213Z,0.20
2023-03-11T18:44:32.174Z,0.10
2023-03-11T18:46:59.410Z,0.20
2023-03-11T18:49:28.053Z,0.10
2023-03-11T18:51:56.209Z,0.10
2023-03-11T18:54:23.602Z,0.10
2023-03-11T18:56:56.715Z,0.10
2023-03-11T18:59:24.249Z,0.10
2023-03-11T19:01:51.544Z,0.10
2023-03-11T19:04:18.932Z,0.20
2023-03-11T19:06:46.523Z,0.20
2023-03-11T19:09:17.904Z,0.30
2023-03-11T19:11:50.611Z,0.20
2023-03-11T19:14:20.930Z,0.28
2023-03-11T19:16:53.122Z,0.35
2023-03-11T19:19:20.824Z,0.57
2023-03-11T19:21:48.121Z,0.25
2023-03-11T19:24:15.437Z,0.17
2023-03-11T19:26:45.789Z,0.10
2023-03-11T19:29:14.736Z,0.20
2023-03-11T19:31:48.621Z,0.30
2023-03-11T19:34:31.180Z,0.10
2023-03-11T19:36:58.516Z,0.15
2023-03-11T19:39:25.772Z,0.70
2023-03-11T19:41:53.018Z,0.10
2023-03-11T19:44:20.296Z,1.00
2023-03-11T19:46:48.775Z,0.57
2023-03-11T19:49:22.725Z,0.10
2023-03-11T19:51:50.792Z,0.20
2023-03-11T19:54:19.497Z,0.30
2023-03-11T19:56:46.931Z,0.55
2023-03-11T19:59:20.955Z,0.55
2023-03-11T20:01:48.273Z,0.55
2023-03-11T20:04:15.848Z,0.10
2023-03-11T20:06:43.885Z,0.10
2023-03-11T20:09:11.804Z,0.80
2023-03-11T20:11:40.004Z,0.10
2023-03-11T20:14:12.547Z,0.17
2023-03-11T20:16:45.417Z,0.10
2023-03-11T20:19:16.530Z,0.10
2023-03-11T20:21:45.818Z,0.30
2023-03-11T20:24:53.092Z,1.45
2023-03-11T20:27:21.597Z,0.52
2023-03-11T20:29:48.871Z,0.10
2023-03-11T20:32:16.244Z,0.20
2023-03-11T20:34:43.553Z,0.10
2023-03-11T20:37:24.730Z,0.10
2023-03-11T20:39:52.126Z,0.00
2023-03-11T20:42:19.458Z,0.35
2023-03-11T20:44:50.929Z,0.15
2023-03-11T20:49:50.569Z,0.10
2023-03-11T20:52:17.969Z,0.10
2023-03-11T20:54:48.814Z,0.20
2023-03-11T20:57:16.645Z,0.10
2023-03-11T20:59:43.973Z,0.30
2023-03-11T21:02:11.807Z,0.63
2023-03-11T21:04:40.409Z,0.10
2023-03-11T21:07:11.185Z,0.10
2023-03-11T21:09:39.045Z,0.10
2023-03-11T21:12:11.174Z,0.10
2023-03-11T21:14:38.622Z,0.30
2023-03-11T21:17:06.167Z,0.20
2023-03-11T21:19:33.486Z,0.20
2023-03-11T21:22:01.241Z,0.47
2023-03-11T21:24:28.712Z,0.20
2023-03-11T21:26:56.229Z,0.20
2023-03-11T21:29:27.651Z,0.28
2023-03-11T21:32:00.836Z,0.15
2023-03-11T21:34:31.603Z,0.10
2023-03-11T21:37:05.692Z,0.20
2023-03-11T21:39:37.269Z,0.52
2023-03-11T21:44:37.326Z,0.10
2023-03-11T21:47:10.667Z,0.52
2023-03-11T21:49:40.202Z,0.10
2023-03-11T21:52:07.613Z,0.20
2023-03-11T21:54:35.325Z,0.88
2023-03-11T21:57:04.485Z,0.30
2023-03-11T21:59:34.934Z,0.73
2023-03-11T22:02:04.799Z,0.10
2023-03-11T22:04:42.283Z,0.38
2023-03-11T22:07:12.548Z,0.30
2023-03-11T22:09:53.527Z,0.20
2023-03-11T22:12:21.172Z,0.55
2023-03-11T22:14:48.579Z,1.95
2023-03-11T22:17:16.154Z,0.28
2023-03-11T22:19:44.009Z,0.38
2023-03-11T22:22:11.612Z,0.25
2023-03-11T22:24:39.880Z,0.70
2023-03-11T22:27:07.453Z,0.22
2023-03-11T22:29:37.092Z,0.52
2023-03-11T22:32:07.448Z,0.20
2023-03-11T22:34:34.774Z,1.40
2023-03-11T22:37:12.106Z,0.10
2023-03-11T22:39:42.556Z,0.10
2023-03-11T22:42:12.203Z,0.15
2023-03-11T22:44:39.485Z,0.28
2023-03-11T22:47:07.321Z,0.10
2023-03-11T22:49:43.511Z,0.20
2023-03-11T22:52:16.514Z,0.10
2023-03-11T22:54:44.497Z,0.10
2023-03-11T22:57:11.899Z,0.52
2023-03-11T22:59:39.587Z,0.10
2023-03-11T23:02:06.940Z,0.65
2023-03-11T23:04:41.437Z,0.10
2023-03-11T23:07:15.126Z,0.10
2023-03-11T23:09:42.675Z,0.13
2023-03-11T23:12:11.647Z,0.10
2023-03-11T23:14:45.174Z,0.43
2023-03-11T23:17:13.285Z,0.20
2023-03-11T23:19:43.546Z,0.10
2023-03-11T23:22:10.820Z,0.10
2023-03-11T23:24:39.955Z,0.50
2023-03-11T23:27:09.870Z,0.40
2023-03-11T23:29:39.211Z,0.10
2023-03-11T23:32:16.063Z,0.10
2023-03-11T23:34:49.946Z,0.15
2023-03-11T23:37:19.141Z,0.10
2023-03-11T23:39:49.539Z,0.05
2023-03-11T23:42:25.894Z,0.45
2023-03-11T23:44:59.477Z,0.85
2023-03-11T23:47:29.691Z,0.10
2023-03-11T23:50:00.288Z,0.25
2023-03-11T23:52:30.978Z,0.10
2023-03-11T23:54:58.272Z,0.10
2023-03-11T23:57:27.495Z,0.20
2023-03-11T23:59:54.858Z,0.20
